Time;durP1;ratioP1;P1;durP2;ratioP2;P2;SDS_P1;SDS_P2;PMS_P1;PMS_P2;Temp;Humidity;BMP_temperature;BMP_pressure;BME280_temperature;BME280_humidity;BME280_pressure;Samples;Min_cycle;Max_cycle;Signal;HPM_P1;HPM_P2
2021/01/17 00:00:32;;;;;;;;;;;16.60;47.70;;;;;;5054198;28;19929;-55
2021/01/17 00:03:00;;;;;;;;;;;16.60;47.70;;;;;;5047132;28;19925;-54
2021/01/17 00:05:27;;;;;;;;;;;16.60;47.80;;;;;;5054045;28;20015;-55
2021/01/17 00:07:53;;;;;;;;;;;16.60;47.80;;;;;;5052878;28;19925;-55
2021/01/17 00:10:21;;;;;;;;;;;16.60;47.80;;;;;;5053970;28;19932;-55
2021/01/17 00:12:48;;;;;;;;;;;16.60;47.80;;;;;;5052836;28;19935;-53
2021/01/17 00:18:35;;;;;;;;;;;16.60;47.90;;;;;;5050804;28;19912;-54
2021/01/17 00:21:07;;;;;;;;;;;16.60;47.90;;;;;;5049599;28;19929;-54
2021/01/17 00:23:35;;;;;;;;;;;16.60;47.90;;;;;;5051541;28;20262;-54
2021/01/17 00:26:01;;;;;;;;;;;16.60;48.00;;;;;;5058427;28;19929;-54
2021/01/17 00:28:27;;;;;;;;;;;16.60;48.00;;;;;;5051939;28;20015;-56
2021/01/17 00:30:53;;;;;;;;;;;16.60;48.00;;;;;;5050066;28;19929;-56
2021/01/17 00:33:20;;;;;;;;;;;16.60;48.00;;;;;;5053595;28;20600;-54
2021/01/17 00:35:46;;;;;;;;;;;16.60;48.10;;;;;;5050647;28;19932;-54
2021/01/17 00:38:12;;;;;;;;;;;16.60;48.10;;;;;;5052717;28;19987;-55
2021/01/17 00:40:38;;;;;;;;;;;16.60;48.10;;;;;;5051699;28;19932;-56
2021/01/17 00:43:04;;;;;;;;;;;16.60;48.10;;;;;;5054549;28;19944;-54
2021/01/17 00:45:31;;;;;;;;;;;16.60;48.10;;;;;;5051869;28;19952;-55
2021/01/17 00:47:57;;;;;;;;;;;16.60;48.10;;;;;;5058420;28;19928;-56
2021/01/17 00:50:24;;;;;;;;;;;16.60;48.10;;;;;;5051021;28;19925;-55
2021/01/17 00:52:51;;;;;;;;;;;16.50;48.10;;;;;;5055369;28;19931;-54
2021/01/17 00:55:27;;;;;;;;;;;16.50;48.20;;;;;;5049895;28;19925;-55
2021/01/17 00:57:54;;;;;;;;;;;16.50;48.10;;;;;;5052835;28;19947;-55
2021/01/17 01:00:24;;;;;;;;;;;16.60;48.20;;;;;;5043031;28;19925;-54
2021/01/17 01:02:50;;;;;;;;;;;16.50;48.10;;;;;;5053192;28;19929;-54
2021/01/17 01:05:36;;;;;;;;;;;16.50;48.10;;;;;;5051312;28;19994;-55
2021/01/17 01:08:06;;;;;;;;;;;16.50;48.10;;;;;;5053371;28;19925;-56
2021/01/17 01:10:32;;;;;;;;;;;16.50;48.10;;;;;;5050297;28;19929;-54
2021/01/17 01:12:58;;;;;;;;;;;16.50;48.20;;;;;;5049736;28;19925;-54
2021/01/17 01:15:25;;;;;;;;;;;16.50;48.20;;;;;;5050071;28;20304;-54
2021/01/17 01:17:51;;;;;;;;;;;16.50;48.90;;;;;;5051847;28;19924;-54
2021/01/17 01:20:17;;;;;;;;;;;16.50;48.30;;;;;;5052197;28;19936;-55
2021/01/17 01:22:43;;;;;;;;;;;16.50;48.20;;;;;;5049225;28;19964;-54
2021/01/17 01:25:25;;;;;;;;;;;16.50;48.30;;;;;;5049022;28;19925;-56
2021/01/17 01:27:52;;;;;;;;;;;16.50;48.30;;;;;;5047854;28;19940;-54
2021/01/17 01:30:19;;;;;;;;;;;16.50;48.30;;;;;;5056309;28;20381;-54
2021/01/17 01:32:49;;;;;;;;;;;16.50;48.30;;;;;;5050446;28;19924;-54
2021/01/17 01:35:20;;;;;;;;;;;16.50;48.30;;;;;;5052085;28;20316;-54
2021/01/17 01:37:46;;;;;;;;;;;16.50;48.40;;;;;;5046118;28;19929;-54
2021/01/17 01:40:13;;;;;;;;;;;16.50;48.40;;;;;;5053487;28;19928;-54
2021/01/17 01:42:42;;;;;;;;;;;16.50;48.30;;;;;;5046878;28;19947;-54
2021/01/17 01:45:09;;;;;;;;;;;16.40;48.40;;;;;;5053149;28;19929;-54
2021/01/17 01:47:36;;;;;;;;;;;16.50;48.40;;;;;;5048422;28;19932;-54
2021/01/17 01:50:03;;;;;;;;;;;16.50;48.40;;;;;;5052886;28;20402;-53
2021/01/17 01:52:30;;;;;;;;;;;16.40;48.40;;;;;;5046545;28;19961;-56
2021/01/17 01:55:01;;;;;;;;;;;16.50;48.50;;;;;;5053658;28;19939;-54
2021/01/17 01:57:29;;;;;;;;;;;16.50;48.50;;;;;;5044149;28;20262;-54
2021/01/17 01:59:55;;;;;;;;;;;16.50;48.50;;;;;;5052576;28;19931;-54
2021/01/17 02:02:22;;;;;;;;;;;16.40;48.40;;;;;;5049612;28;19925;-54
2021/01/17 02:04:58;;;;;;;;;;;16.50;48.60;;;;;;5051759;28;19932;-55
2021/01/17 02:07:42;;;;;;;;;;;16.40;48.50;;;;;;5047994;28;19935;-54
2021/01/17 02:10:08;;;;;;;;;;;16.40;48.50;;;;;;5048573;28;19936;-54
2021/01/17 02:12:43;;;;;;;;;;;16.40;48.50;;;;;;5048394;28;19931;-54
2021/01/17 02:15:37;;;;;;;;;;;16.40;48.50;;;;;;5054826;28;20009;-55
2021/01/17 02:18:04;;;;;;;;;;;16.40;48.50;;;;;;5045491;28;19928;-56
2021/01/17 02:20:32;;;;;;;;;;;16.40;48.50;;;;;;5051414;28;19925;-55
2021/01/17 02:23:01;;;;;;;;;;;16.40;48.60;;;;;;5050534;28;19967;-56
2021/01/17 02:25:28;;;;;;;;;;;16.40;48.60;;;;;;5048839;28;19979;-55
2021/01/17 02:27:55;;;;;;;;;;;16.40;48.60;;;;;;5051814;28;19933;-54
2021/01/17 02:30:23;;;;;;;;;;;16.40;48.60;;;;;;5047577;28;20055;-54
2021/01/17 02:32:51;;;;;;;;;;;16.40;48.60;;;;;;5053010;28;19932;-55
2021/01/17 02:35:17;;;;;;;;;;;16.40;48.70;;;;;;5048234;28;19928;-55
2021/01/17 02:37:59;;;;;;;;;;;16.40;48.70;;;;;;5054356;28;19939;-54
2021/01/17 02:40:46;;;;;;;;;;;16.40;48.70;;;;;;5045481;28;19925;-54
2021/01/17 02:43:12;;;;;;;;;;;16.40;48.70;;;;;;5053853;28;19925;-55
2021/01/17 02:45:38;;;;;;;;;;;16.40;48.70;;;;;;5046565;28;19932;-54
2021/01/17 02:48:05;;;;;;;;;;;16.40;48.80;;;;;;5052716;28;19931;-56
2021/01/17 02:50:31;;;;;;;;;;;16.40;48.80;;;;;;5047386;28;19928;-54
2021/01/17 02:53:01;;;;;;;;;;;16.40;48.80;;;;;;5053859;28;19929;-56
2021/01/17 02:55:43;;;;;;;;;;;16.40;48.80;;;;;;5042574;28;20292;-55
2021/01/17 02:58:11;;;;;;;;;;;16.40;49.10;;;;;;5048693;28;19940;-56
2021/01/17 03:00:39;;;;;;;;;;;16.40;48.80;;;;;;5045306;28;19928;-55
2021/01/17 03:03:07;;;;;;;;;;;16.40;48.80;;;;;;5050400;28;19931;-56
2021/01/17 03:05:34;;;;;;;;;;;16.40;48.80;;;;;;5047294;28;20297;-55
2021/01/17 03:08:03;;;;;;;;;;;16.40;48.80;;;;;;5048921;28;19925;-56
2021/01/17 03:10:29;;;;;;;;;;;16.40;48.90;;;;;;5040931;28;20382;-56
2021/01/17 03:12:56;;;;;;;;;;;16.40;48.90;;;;;;5051018;28;19924;-55
2021/01/17 03:15:31;;;;;;;;;;;16.40;48.90;;;;;;5046028;28;19937;-54
2021/01/17 03:17:58;;;;;;;;;;;16.30;48.80;;;;;;5049759;28;19928;-56
2021/01/17 03:20:24;;;;;;;;;;;16.40;48.90;;;;;;5048330;28;19933;-54
2021/01/17 03:22:50;;;;;;;;;;;16.40;48.90;;;;;;5045671;28;19957;-56
2021/01/17 03:25:22;;;;;;;;;;;16.30;48.90;;;;;;5054261;28;19935;-55
2021/01/17 03:27:48;;;;;;;;;;;16.40;48.90;;;;;;5036478;28;19925;-56
2021/01/17 03:30:15;;;;;;;;;;;16.30;48.90;;;;;;5031828;28;19925;-56
2021/01/17 03:32:42;;;;;;;;;;;16.30;48.90;;;;;;5025773;28;19933;-56
2021/01/17 03:35:33;;;;;;;;;;;16.30;48.90;;;;;;5031666;28;19925;-56
2021/01/17 03:37:59;;;;;;;;;;;16.30;48.90;;;;;;5028764;28;19931;-56
2021/01/17 03:40:26;;;;;;;;;;;16.40;49.00;;;;;;5031482;28;19932;-54
2021/01/17 03:42:52;;;;;;;;;;;16.40;49.00;;;;;;5025972;28;19925;-56
2021/01/17 03:45:18;;;;;;;;;;;16.30;48.90;;;;;;5030146;28;19936;-56
2021/01/17 03:47:44;;;;;;;;;;;16.40;49.00;;;;;;5025385;28;19931;-56
2021/01/17 03:50:11;;;;;;;;;;;16.40;49.00;;;;;;5028058;28;19925;-56
2021/01/17 03:52:38;;;;;;;;;;;16.30;48.90;;;;;;5023701;28;20369;-56
2021/01/17 03:55:05;;;;;;;;;;;16.30;48.90;;;;;;5032269;28;19933;-56
2021/01/17 03:57:31;;;;;;;;;;;16.30;49.00;;;;;;5027417;28;19932;-56
2021/01/17 03:59:57;;;;;;;;;;;16.30;49.00;;;;;;5030250;28;19935;-55
2021/01/17 04:02:24;;;;;;;;;;;16.30;49.00;;;;;;5024782;28;20292;-56
2021/01/17 04:05:10;;;;;;;;;;;16.30;49.10;;;;;;5033866;28;20006;-56
2021/01/17 04:07:36;;;;;;;;;;;16.30;49.10;;;;;;5023115;28;19975;-55
2021/01/17 04:10:03;;;;;;;;;;;16.30;49.10;;;;;;5028084;28;19925;-56
2021/01/17 04:12:29;;;;;;;;;;;16.30;49.20;;;;;;5031672;28;19925;-55
2021/01/17 04:15:11;;;;;;;;;;;16.30;49.10;;;;;;5021482;28;19925;-55
2021/01/17 04:17:37;;;;;;;;;;;16.30;49.20;;;;;;5029679;28;19961;-55
2021/01/17 04:20:04;;;;;;;;;;;16.30;49.20;;;;;;5026956;28;19940;-56
2021/01/17 04:22:30;;;;;;;;;;;16.30;49.20;;;;;;5030256;28;19979;-56
2021/01/17 04:24:56;;;;;;;;;;;16.30;49.20;;;;;;5022233;28;19931;-56
2021/01/17 04:27:22;;;;;;;;;;;16.30;49.20;;;;;;5041668;28;20336;-56
2021/01/17 04:29:48;;;;;;;;;;;16.30;49.20;;;;;;5046629;28;19925;-56
2021/01/17 04:32:15;;;;;;;;;;;16.30;49.20;;;;;;5037935;28;19932;-55
2021/01/17 04:34:46;;;;;;;;;;;16.30;49.30;;;;;;5047547;28;19972;-55
2021/01/17 04:37:12;;;;;;;;;;;16.30;49.30;;;;;;5053037;28;19967;-55
2021/01/17 04:39:39;;;;;;;;;;;16.30;49.30;;;;;;5046782;28;19925;-55
2021/01/17 04:42:07;;;;;;;;;;;16.30;50.10;;;;;;5056460;28;20361;-55
2021/01/17 04:44:58;;;;;;;;;;;16.30;50.40;;;;;;5053311;28;19939;-55
2021/01/17 04:47:25;;;;;;;;;;;16.30;50.30;;;;;;5058577;28;19967;-53
2021/01/17 04:49:58;;;;;;;;;;;16.40;50.70;;;;;;5051253;28;20033;-55
2021/01/17 04:52:25;;;;;;;;;;;16.50;50.40;;;;;;5055514;28;19925;-55
2021/01/17 04:55:10;;;;;;;;;;;16.50;50.10;;;;;;5052428;28;19925;-55
2021/01/17 04:57:38;;;;;;;;;;;16.60;50.60;;;;;;5052283;28;19924;-56
2021/01/17 05:00:07;;;;;;;;;;;16.60;50.20;;;;;;5050684;28;19947;-55
2021/01/17 05:02:34;;;;;;;;;;;16.60;49.90;;;;;;5055964;28;19991;-55
2021/01/17 05:05:37;;;;;;;;;;;16.60;50.00;;;;;;5051721;28;19924;-56
2021/01/17 05:08:04;;;;;;;;;;;16.50;50.00;;;;;;5057066;28;19925;-55
2021/01/17 05:10:34;;;;;;;;;;;16.40;49.90;;;;;;5047145;28;19931;-55
2021/01/17 05:13:09;;;;;;;;;;;16.40;49.90;;;;;;5053253;28;19976;-55
2021/01/17 05:15:39;;;;;;;;;;;16.40;49.80;;;;;;5049385;28;20370;-55
2021/01/17 05:18:06;;;;;;;;;;;16.40;49.80;;;;;;5052025;28;19931;-55
2021/01/17 05:20:32;;;;;;;;;;;16.30;49.80;;;;;;5051048;28;19928;-55
2021/01/17 05:22:58;;;;;;;;;;;16.30;49.90;;;;;;5052480;28;20024;-55
2021/01/17 05:25:26;;;;;;;;;;;16.30;49.90;;;;;;5055609;28;19925;-55
2021/01/17 05:27:52;;;;;;;;;;;16.30;50.00;;;;;;5049440;28;19924;-55
2021/01/17 05:30:19;;;;;;;;;;;16.20;50.00;;;;;;5054529;28;19960;-55
2021/01/17 05:32:48;;;;;;;;;;;16.20;50.10;;;;;;5048696;28;19971;-55
2021/01/17 05:38:22;;;;;;;;;;;16.20;50.20;;;;;;5049972;28;20035;-55
2021/01/17 05:40:48;;;;;;;;;;;16.20;50.20;;;;;;5054755;28;19933;-55
2021/01/17 05:43:14;;;;;;;;;;;16.20;50.20;;;;;;5051989;28;19928;-55
2021/01/17 05:45:41;;;;;;;;;;;16.20;50.30;;;;;;5053556;28;19931;-55
2021/01/17 05:48:07;;;;;;;;;;;16.10;50.30;;;;;;5045994;28;19939;-55
2021/01/17 05:50:34;;;;;;;;;;;16.10;50.30;;;;;;5051709;28;19947;-55
2021/01/17 05:53:01;;;;;;;;;;;16.10;50.30;;;;;;5048528;28;19931;-55
2021/01/17 05:58:44;;;;;;;;;;;16.10;50.30;;;;;;5047162;28;19925;-55
2021/01/17 06:01:17;;;;;;;;;;;16.10;50.40;;;;;;5052204;28;19925;-55
2021/01/17 06:03:54;;;;;;;;;;;16.10;50.40;;;;;;5047797;28;20296;-55
2021/01/17 06:06:26;;;;;;;;;;;16.00;50.30;;;;;;5051797;28;19928;-55
2021/01/17 06:08:56;;;;;;;;;;;16.00;50.40;;;;;;5047501;28;19924;-55
2021/01/17 06:11:23;;;;;;;;;;;16.00;50.40;;;;;;5052514;28;19967;-55
2021/01/17 06:13:54;;;;;;;;;;;16.00;50.40;;;;;;5047696;28;19925;-55
2021/01/17 06:16:48;;;;;;;;;;;16.00;50.40;;;;;;5052398;28;19925;-55
2021/01/17 06:19:15;;;;;;;;;;;16.00;50.30;;;;;;5050353;28;20313;-55
2021/01/17 06:21:47;;;;;;;;;;;16.00;51.00;;;;;;5053397;28;19929;-55
2021/01/17 06:24:33;;;;;;;;;;;16.00;50.40;;;;;;5046506;28;19932;-55
2021/01/17 06:27:01;;;;;;;;;;;16.00;50.40;;;;;;5052831;28;19962;-55
2021/01/17 06:29:35;;;;;;;;;;;16.00;50.40;;;;;;5053918;28;19948;-55
2021/01/17 06:32:11;;;;;;;;;;;16.00;50.50;;;;;;5044273;28;20510;-55
2021/01/17 06:38:15;;;;;;;;;;;15.90;50.40;;;;;;5036523;28;19913;-55
2021/01/17 06:40:43;;;;;;;;;;;15.90;50.40;;;;;;5051056;28;19924;-55
2021/01/17 06:43:10;;;;;;;;;;;15.90;50.40;;;;;;5046587;28;19931;-55
2021/01/17 06:45:52;;;;;;;;;;;15.90;50.50;;;;;;5051008;28;19925;-55
2021/01/17 06:48:20;;;;;;;;;;;15.90;50.50;;;;;;5037427;28;19931;-55
2021/01/17 06:50:46;;;;;;;;;;;15.90;50.50;;;;;;5049619;28;19998;-55
2021/01/17 06:53:20;;;;;;;;;;;15.90;50.40;;;;;;5046017;28;19924;-55
2021/01/17 06:55:47;;;;;;;;;;;15.90;50.50;;;;;;5050514;28;20468;-55
2021/01/17 06:58:15;;;;;;;;;;;15.90;50.50;;;;;;5041375;28;20280;-55
2021/01/17 07:00:41;;;;;;;;;;;15.90;50.60;;;;;;5050120;28;19939;-55
2021/01/17 07:03:29;;;;;;;;;;;15.90;50.50;;;;;;5047256;28;19928;-55
2021/01/17 07:06:10;;;;;;;;;;;15.90;50.60;;;;;;5054113;28;19933;-55
2021/01/17 07:08:49;;;;;;;;;;;15.90;50.50;;;;;;5041905;28;19931;-55
2021/01/17 07:11:26;;;;;;;;;;;15.80;50.50;;;;;;5052095;28;19925;-55
2021/01/17 07:13:56;;;;;;;;;;;15.80;50.70;;;;;;5047105;28;19928;-55
2021/01/17 07:16:31;;;;;;;;;;;15.80;50.60;;;;;;5049506;28;19925;-55
2021/01/17 07:19:01;;;;;;;;;;;15.80;50.70;;;;;;5049094;28;19935;-55
2021/01/17 07:21:32;;;;;;;;;;;15.80;50.70;;;;;;5054123;28;20377;-55
2021/01/17 07:24:01;;;;;;;;;;;15.80;50.60;;;;;;5041193;28;19925;-55
2021/01/17 07:26:33;;;;;;;;;;;15.80;50.70;;;;;;5055934;28;20448;-57
2021/01/17 07:29:02;;;;;;;;;;;15.80;50.70;;;;;;5051039;28;19931;-57
2021/01/17 07:31:35;;;;;;;;;;;15.80;50.70;;;;;;5063459;28;19932;-55
2021/01/17 07:34:07;;;;;;;;;;;15.80;50.80;;;;;;5049233;28;20012;-56
2021/01/17 07:36:37;;;;;;;;;;;15.80;50.80;;;;;;5057076;28;20344;-55
2021/01/17 07:39:03;;;;;;;;;;;15.80;50.80;;;;;;5049292;28;19931;-56
2021/01/17 07:41:35;;;;;;;;;;;15.80;50.80;;;;;;5060115;28;19967;-57
2021/01/17 07:44:01;;;;;;;;;;;15.80;50.80;;;;;;5035025;28;19925;-58
2021/01/17 07:46:30;;;;;;;;;;;15.80;50.90;;;;;;5057629;28;20055;-60
2021/01/17 07:49:00;;;;;;;;;;;15.80;50.90;;;;;;5045044;28;19925;-59
2021/01/17 07:51:26;;;;;;;;;;;15.80;50.90;;;;;;5037655;28;19943;-59
2021/01/17 07:54:01;;;;;;;;;;;15.80;50.90;;;;;;5045040;28;19947;-59
2021/01/17 07:56:29;;;;;;;;;;;15.80;50.90;;;;;;5042579;28;19935;-55
2021/01/17 07:58:59;;;;;;;;;;;15.70;50.90;;;;;;5051899;28;19925;-55
2021/01/17 08:01:41;;;;;;;;;;;15.80;51.00;;;;;;5049524;28;19925;-55
2021/01/17 08:04:10;;;;;;;;;;;15.80;50.90;;;;;;5050396;28;19935;-55
2021/01/17 08:06:36;;;;;;;;;;;15.70;51.00;;;;;;5048440;28;20011;-55
2021/01/17 08:09:06;;;;;;;;;;;15.70;50.90;;;;;;5055444;28;19924;-56
2021/01/17 08:11:43;;;;;;;;;;;15.80;50.90;;;;;;5051381;28;19933;-56
2021/01/17 08:14:41;;;;;;;;;;;15.70;50.90;;;;;;5051001;28;19925;-55
2021/01/17 08:17:11;;;;;;;;;;;15.70;51.00;;;;;;5028217;28;20428;-56
2021/01/17 08:19:37;;;;;;;;;;;15.70;50.90;;;;;;5055274;28;20121;-55
2021/01/17 08:22:15;;;;;;;;;;;15.70;51.00;;;;;;5052937;28;19924;-55
2021/01/17 08:27:51;;;;;;;;;;;15.70;51.00;;;;;;5050302;28;20014;-55
2021/01/17 08:30:19;;;;;;;;;;;15.70;51.10;;;;;;5057268;28;19929;-56
2021/01/17 08:32:49;;;;;;;;;;;15.70;51.10;;;;;;5050286;28;19932;-55
2021/01/17 08:35:46;;;;;;;;;;;15.70;51.10;;;;;;5055404;28;19925;-55
2021/01/17 08:38:16;;;;;;;;;;;15.70;51.10;;;;;;5043844;28;19925;-55
2021/01/17 08:40:42;;;;;;;;;;;15.70;51.10;;;;;;5052382;28;19934;-55
2021/01/17 08:43:09;;;;;;;;;;;15.70;51.10;;;;;;5048068;28;20398;-55
2021/01/17 08:45:36;;;;;;;;;;;15.70;51.10;;;;;;5054487;28;20266;-55
2021/01/17 08:48:15;;;;;;;;;;;15.70;51.10;;;;;;5050873;28;20002;-55
2021/01/17 08:50:42;;;;;;;;;;;15.70;51.20;;;;;;5054058;28;19931;-55
2021/01/17 08:53:09;;;;;;;;;;;15.70;51.10;;;;;;5047849;28;19932;-55
2021/01/17 08:55:43;;;;;;;;;;;15.70;51.20;;;;;;5056146;28;19932;-57
2021/01/17 08:58:09;;;;;;;;;;;15.70;51.10;;;;;;5048900;28;20230;-57
2021/01/17 09:00:48;;;;;;;;;;;15.70;51.10;;;;;;5052851;28;19925;-57
2021/01/17 09:03:31;;;;;;;;;;;15.70;51.20;;;;;;5038846;28;19939;-57
2021/01/17 09:05:59;;;;;;;;;;;15.70;51.20;;;;;;5046266;28;20379;-57
2021/01/17 09:08:26;;;;;;;;;;;15.70;51.20;;;;;;5037340;28;19933;-57
2021/01/17 09:10:52;;;;;;;;;;;15.70;51.20;;;;;;5049190;28;19947;-57
2021/01/17 09:13:19;;;;;;;;;;;15.70;51.10;;;;;;5038155;28;19940;-57
2021/01/17 09:16:06;;;;;;;;;;;15.60;51.10;;;;;;5048743;28;20266;-57
2021/01/17 09:18:36;;;;;;;;;;;15.70;51.20;;;;;;5038392;28;19933;-57
2021/01/17 09:21:04;;;;;;;;;;;15.70;51.20;;;;;;5049554;28;19996;-55
2021/01/17 09:23:35;;;;;;;;;;;15.70;51.30;;;;;;5049605;28;19964;-55
2021/01/17 09:26:01;;;;;;;;;;;15.70;51.20;;;;;;5052924;28;19924;-55
2021/01/17 09:28:28;;;;;;;;;;;15.60;51.20;;;;;;5046661;28;25352;-55
2021/01/17 09:30:56;;;;;;;;;;;15.70;51.30;;;;;;5052880;28;19924;-55
2021/01/17 09:33:22;;;;;;;;;;;15.60;51.20;;;;;;5052406;28;19925;-55
2021/01/17 09:36:13;;;;;;;;;;;15.70;51.20;;;;;;5050466;28;19928;-55
2021/01/17 09:38:40;;;;;;;;;;;15.70;51.20;;;;;;5049897;28;20339;-55
2021/01/17 09:41:10;;;;;;;;;;;15.70;51.20;;;;;;5051544;28;19929;-55
2021/01/17 09:43:39;;;;;;;;;;;15.60;51.30;;;;;;5052159;28;19975;-56
2021/01/17 09:46:37;;;;;;;;;;;15.70;51.30;;;;;;5050354;28;20304;-55
2021/01/17 09:49:04;;;;;;;;;;;15.70;51.30;;;;;;5048590;28;19924;-55
2021/01/17 09:51:32;;;;;;;;;;;15.70;51.30;;;;;;5052466;28;20365;-55
2021/01/17 09:54:04;;;;;;;;;;;15.70;51.30;;;;;;5053263;28;19925;-55
2021/01/17 09:56:31;;;;;;;;;;;15.70;51.20;;;;;;5053109;28;20273;-55
2021/01/17 09:58:57;;;;;;;;;;;15.60;51.20;;;;;;5052921;28;19930;-55
2021/01/17 10:01:23;;;;;;;;;;;15.70;51.20;;;;;;5048444;28;19954;-55
2021/01/17 10:03:50;;;;;;;;;;;15.70;51.30;;;;;;5048119;28;19925;-56
2021/01/17 10:06:16;;;;;;;;;;;15.70;51.30;;;;;;5051035;28;19933;-56
2021/01/17 10:08:43;;;;;;;;;;;15.70;51.20;;;;;;5054045;28;19935;-55
2021/01/17 10:11:10;;;;;;;;;;;15.60;51.90;;;;;;5045798;28;19932;-55
2021/01/17 10:13:45;;;;;;;;;;;15.70;51.20;;;;;;5051123;28;19932;-55
2021/01/17 10:16:11;;;;;;;;;;;15.70;51.20;;;;;;5047192;28;20357;-55
2021/01/17 10:18:38;;;;;;;;;;;15.70;51.20;;;;;;5050264;28;19929;-55
2021/01/17 10:21:04;;;;;;;;;;;15.60;51.20;;;;;;5045897;28;19925;-55
2021/01/17 10:23:31;;;;;;;;;;;15.70;51.20;;;;;;5044583;28;20313;-55
2021/01/17 10:26:23;;;;;;;;;;;15.70;51.20;;;;;;5046131;28;19933;-55
2021/01/17 10:28:50;;;;;;;;;;;15.70;51.20;;;;;;5029281;28;19987;-56
2021/01/17 10:31:21;;;;;;;;;;;15.70;51.20;;;;;;5023670;28;20012;-57
2021/01/17 10:33:48;;;;;;;;;;;15.70;51.10;;;;;;5027416;28;19935;-57
2021/01/17 10:36:30;;;;;;;;;;;15.70;51.20;;;;;;5021422;28;19925;-55
2021/01/17 10:38:56;;;;;;;;;;;15.70;51.20;;;;;;5027035;28;19925;-55
2021/01/17 10:41:24;;;;;;;;;;;15.70;51.20;;;;;;5026182;28;19925;-55
2021/01/17 10:43:56;;;;;;;;;;;15.70;51.60;;;;;;5028960;28;19925;-55
2021/01/17 10:46:25;;;;;;;;;;;15.70;51.70;;;;;;5028305;28;20373;-56
2021/01/17 10:48:58;;;;;;;;;;;15.70;51.60;;;;;;5027204;28;19961;-56
2021/01/17 10:51:28;;;;;;;;;;;15.90;51.40;;;;;;5025707;28;19932;-55
2021/01/17 10:53:57;;;;;;;;;;;16.50;50.20;;;;;;5022950;28;19931;-54
2021/01/17 10:56:23;;;;;;;;;;;16.90;49.50;;;;;;5029169;28;19933;-54
2021/01/17 10:58:50;;;;;;;;;;;17.40;48.90;;;;;;5028047;28;19933;-55
2021/01/17 11:01:16;;;;;;;;;;;17.70;48.20;;;;;;5026166;28;20556;-55
2021/01/17 11:03:44;;;;;;;;;;;17.90;47.90;;;;;;5028452;28;19933;-54
2021/01/17 11:06:14;;;;;;;;;;;18.10;47.50;;;;;;5032120;28;19925;-55
2021/01/17 11:08:40;;;;;;;;;;;18.30;47.10;;;;;;5028830;28;20398;-54
2021/01/17 11:11:07;;;;;;;;;;;18.50;46.80;;;;;;5031765;28;19925;-57
2021/01/17 11:13:34;;;;;;;;;;;18.60;46.60;;;;;;5027902;28;19936;-55
2021/01/17 11:16:36;;;;;;;;;;;18.80;46.50;;;;;;5033738;28;19925;-55
2021/01/17 11:19:04;;;;;;;;;;;18.90;47.00;;;;;;5029483;28;19925;-56
2021/01/17 11:21:30;;;;;;;;;;;19.10;47.40;;;;;;5032850;28;19925;-54
2021/01/17 11:23:57;;;;;;;;;;;19.20;48.10;;;;;;5024168;28;19925;-54
2021/01/17 11:26:24;;;;;;;;;;;19.30;48.20;;;;;;5029321;28;19932;-55
2021/01/17 11:28:52;;;;;;;;;;;19.40;48.10;;;;;;5049937;28;20365;-55
2021/01/17 11:31:19;;;;;;;;;;;19.60;48.30;;;;;;5042624;28;20015;-58
2021/01/17 11:33:47;;;;;;;;;;;19.60;48.40;;;;;;5032958;28;19941;-57
2021/01/17 11:36:27;;;;;;;;;;;19.70;48.40;;;;;;5046175;28;20378;-56
2021/01/17 11:38:56;;;;;;;;;;;19.90;48.30;;;;;;5048005;28;20033;-56
2021/01/17 11:41:31;;;;;;;;;;;19.50;48.60;;;;;;5046200;28;19967;-58
2021/01/17 11:44:09;;;;;;;;;;;19.00;49.00;;;;;;5031759;28;19924;-58
2021/01/17 11:46:35;;;;;;;;;;;18.60;49.40;;;;;;5036090;28;19941;-58
2021/01/17 11:49:03;;;;;;;;;;;18.40;49.70;;;;;;5035534;28;19932;-58
2021/01/17 11:51:30;;;;;;;;;;;18.20;49.80;;;;;;5040160;28;20473;-58
2021/01/17 11:54:12;;;;;;;;;;;18.10;49.90;;;;;;5031120;28;19932;-57
2021/01/17 11:56:39;;;;;;;;;;;18.00;50.00;;;;;;5041117;28;19991;-58
2021/01/17 11:59:06;;;;;;;;;;;17.90;50.00;;;;;;5029992;28;19925;-58
2021/01/17 12:01:32;;;;;;;;;;;17.90;50.10;;;;;;5039375;28;19929;-58
2021/01/17 12:04:00;;;;;;;;;;;17.80;50.00;;;;;;5031405;28;20327;-58
2021/01/17 12:06:27;;;;;;;;;;;17.80;50.00;;;;;;5038593;28;19933;-59
2021/01/17 12:08:53;;;;;;;;;;;17.80;51.40;;;;;;5036672;28;19933;-57
2021/01/17 12:11:26;;;;;;;;;;;18.40;50.60;;;;;;5026288;28;20309;-57
2021/01/17 12:13:53;;;;;;;;;;;18.80;49.90;;;;;;5033126;28;20460;-57
2021/01/17 12:16:45;;;;;;;;;;;19.00;49.30;;;;;;5028349;28;19990;-58
2021/01/17 12:19:13;;;;;;;;;;;19.30;48.20;;;;;;5037423;28;20486;-58
2021/01/17 12:21:39;;;;;;;;;;;19.40;48.10;;;;;;5026555;28;19933;-57
2021/01/17 12:24:07;;;;;;;;;;;19.50;47.70;;;;;;5039753;28;19929;-57
2021/01/17 12:26:33;;;;;;;;;;;19.60;47.70;;;;;;5035708;28;20424;-56
2021/01/17 12:29:00;;;;;;;;;;;19.80;48.20;;;;;;5032204;28;19965;-56
2021/01/17 12:31:27;;;;;;;;;;;19.90;48.20;;;;;;5040531;28;20568;-57
2021/01/17 12:33:54;;;;;;;;;;;20.00;48.10;;;;;;5028888;28;19956;-58
2021/01/17 12:36:22;;;;;;;;;;;20.10;47.80;;;;;;5044601;28;20296;-53
2021/01/17 12:38:49;;;;;;;;;;;20.20;47.80;;;;;;5042014;28;19939;-54
2021/01/17 12:41:16;;;;;;;;;;;20.30;47.60;;;;;;5041568;28;19964;-52
2021/01/17 12:43:43;;;;;;;;;;;20.30;47.40;;;;;;5039992;28;19969;-53
2021/01/17 12:46:20;;;;;;;;;;;20.40;47.50;;;;;;5033024;28;20489;-53
2021/01/17 12:48:46;;;;;;;;;;;20.40;47.20;;;;;;5045501;28;19932;-54
2021/01/17 12:51:13;;;;;;;;;;;20.50;46.90;;;;;;5039070;28;19928;-53
2021/01/17 12:53:40;;;;;;;;;;;20.60;46.60;;;;;;5045452;28;19986;-53
2021/01/17 12:56:07;;;;;;;;;;;20.50;46.70;;;;;;5040840;28;19933;-53
2021/01/17 12:58:33;;;;;;;;;;;20.60;46.60;;;;;;5046447;28;20013;-55
2021/01/17 13:01:00;;;;;;;;;;;20.70;46.50;;;;;;5039880;28;19928;-57
2021/01/17 13:03:26;;;;;;;;;;;20.70;46.40;;;;;;5040730;28;20015;-56
2021/01/17 13:05:54;;;;;;;;;;;20.40;46.20;;;;;;5036885;28;19933;-57
2021/01/17 13:08:20;;;;;;;;;;;20.10;46.90;;;;;;5043587;28;19924;-58
2021/01/17 13:10:48;;;;;;;;;;;19.70;48.70;;;;;;5032875;28;20800;-56
2021/01/17 13:13:15;;;;;;;;;;;19.50;49.00;;;;;;5038936;28;19982;-58
2021/01/17 13:15:43;;;;;;;;;;;19.30;48.60;;;;;;5043584;28;19925;-57
2021/01/17 13:18:09;;;;;;;;;;;19.20;48.70;;;;;;5040452;28;20286;-56
2021/01/17 13:20:35;;;;;;;;;;;19.10;48.70;;;;;;5038030;28;19929;-54
2021/01/17 13:23:06;;;;;;;;;;;19.00;48.60;;;;;;5032012;28;20499;-53
2021/01/17 13:25:35;;;;;;;;;;;19.00;48.60;;;;;;5042548;28;19982;-54
2021/01/17 13:28:01;;;;;;;;;;;18.90;48.70;;;;;;5042744;28;19925;-53
2021/01/17 13:30:27;;;;;;;;;;;18.90;48.80;;;;;;5046982;28;19947;-53
2021/01/17 13:32:54;;;;;;;;;;;18.80;48.80;;;;;;5039328;28;19933;-53
2021/01/17 13:35:25;;;;;;;;;;;18.80;48.80;;;;;;5044191;28;20297;-53
2021/01/17 13:37:51;;;;;;;;;;;18.70;48.80;;;;;;5042303;28;19928;-52
2021/01/17 13:40:17;;;;;;;;;;;18.70;48.80;;;;;;5040408;28;19968;-53
2021/01/17 13:42:44;;;;;;;;;;;18.70;48.90;;;;;;5037401;28;19929;-53
2021/01/17 13:45:10;;;;;;;;;;;18.60;48.90;;;;;;5046036;28;19935;-52
2021/01/17 13:47:39;;;;;;;;;;;18.60;49.00;;;;;;5034051;28;19947;-54
2021/01/17 13:50:06;;;;;;;;;;;18.60;49.00;;;;;;5046167;28;20316;-54
2021/01/17 13:52:32;;;;;;;;;;;18.50;49.00;;;;;;5043591;28;19932;-53
2021/01/17 13:54:58;;;;;;;;;;;18.50;49.00;;;;;;5047092;28;19967;-54
2021/01/17 13:57:25;;;;;;;;;;;18.40;49.00;;;;;;5036415;28;20317;-55
2021/01/17 13:59:51;;;;;;;;;;;18.40;49.10;;;;;;5042342;28;19933;-56
2021/01/17 14:02:18;;;;;;;;;;;18.40;49.10;;;;;;5036565;28;20044;-59
2021/01/17 14:04:44;;;;;;;;;;;18.30;49.10;;;;;;5032008;28;19929;-59
2021/01/17 14:07:11;;;;;;;;;;;18.30;49.20;;;;;;5048330;28;20308;-55
2021/01/17 14:09:37;;;;;;;;;;;18.30;49.20;;;;;;5045552;28;20397;-54
2021/01/17 14:12:07;;;;;;;;;;;18.30;49.50;;;;;;5045589;28;19932;-54
2021/01/17 14:14:38;;;;;;;;;;;18.40;49.90;;;;;;5040656;28;20293;-54
2021/01/17 14:17:05;;;;;;;;;;;18.30;50.30;;;;;;5045767;28;19931;-54
2021/01/17 14:19:32;;;;;;;;;;;18.30;51.00;;;;;;5042913;28;19929;-54
2021/01/17 14:21:58;;;;;;;;;;;18.30;51.40;;;;;;5045386;28;19933;-54
2021/01/17 14:24:30;;;;;;;;;;;18.20;51.50;;;;;;5038481;28;19944;-54
2021/01/17 14:26:56;;;;;;;;;;;18.20;51.60;;;;;;5045792;28;19929;-54
2021/01/17 14:29:22;;;;;;;;;;;18.20;51.70;;;;;;5042907;28;19925;-54
2021/01/17 14:31:49;;;;;;;;;;;18.20;51.70;;;;;;5049273;28;20020;-54
2021/01/17 14:34:26;;;;;;;;;;;18.20;51.70;;;;;;5046390;28;19928;-55
2021/01/17 14:36:52;;;;;;;;;;;18.20;51.70;;;;;;5041054;28;19948;-54
2021/01/17 14:39:22;;;;;;;;;;;18.20;51.50;;;;;;5045700;28;19928;-54
2021/01/17 14:41:51;;;;;;;;;;;18.20;51.90;;;;;;5050353;28;19954;-54
2021/01/17 14:44:18;;;;;;;;;;;18.20;52.00;;;;;;5043629;28;19925;-54
2021/01/17 14:46:45;;;;;;;;;;;18.20;52.40;;;;;;5048522;28;19935;-53